createdAt,value
2016-12-25T00:00:43.438Z,6.47
2016-12-25T00:01:43.110Z,6.6
2016-12-25T00:02:43.429Z,6.52
2016-12-25T00:03:43.753Z,6.53
2016-12-25T00:04:43.753Z,6.52
2016-12-25T00:05:43.445Z,6.43
2016-12-25T00:06:43.085Z,6.56
2016-12-25T00:07:43.728Z,6.53
2016-12-25T00:08:43.732Z,6.53
2016-12-25T00:09:43.408Z,6.54
2016-12-25T00:10:43.404Z,6.54
2016-12-25T00:11:43.399Z,6.52
2016-12-25T00:12:43.392Z,6.49
2016-12-25T00:13:43.724Z,6.49
2016-12-25T00:14:43.387Z,6.38
2016-12-25T00:15:43.704Z,6.44
2016-12-25T00:16:43.375Z,6.39
2016-12-25T00:17:43.371Z,6.36
2016-12-25T00:18:43.371Z,6.41
2016-12-25T00:19:43.693Z,6.38
2016-12-25T00:20:43.367Z,6.34
2016-12-25T00:21:43.359Z,6.39
2016-12-25T00:22:43.683Z,6.41
2016-12-25T00:23:43.351Z,6.34
2016-12-25T00:24:43.171Z,6.36
2016-12-25T00:25:43.666Z,6.31
2016-12-25T00:26:43.342Z,6.39
2016-12-25T00:27:43.330Z,6.39
2016-12-25T00:28:43.019Z,6.41
2016-12-25T00:29:43.318Z,6.35
2016-12-25T00:30:43.646Z,6.39
2016-12-25T00:31:43.316Z,6.44
2016-12-25T00:32:43.637Z,6.29
2016-12-25T00:33:43.317Z,6.35
2016-12-25T00:34:43.557Z,6.38
2016-12-25T00:35:43.630Z,6.39
2016-12-25T00:36:43.294Z,6.41
2016-12-25T00:37:43.630Z,6.5
2016-12-25T00:38:43.626Z,6.46
2016-12-25T00:39:43.290Z,6.43
2016-12-25T00:40:43.614Z,6.52
2016-12-25T00:41:43.607Z,6.49
2016-12-25T00:42:43.278Z,6.39
2016-12-25T00:43:42.950Z,6.43
2016-12-25T00:44:43.270Z,6.47
2016-12-25T00:45:43.590Z,6.43
2016-12-25T00:46:43.591Z,6.44
2016-12-25T00:47:43.263Z,6.35
2016-12-25T00:48:43.254Z,6.39
2016-12-25T00:49:43.582Z,6.38
2016-12-25T00:50:43.247Z,6.35
2016-12-25T00:51:43.579Z,6.38
2016-12-25T00:52:43.571Z,6.34
2016-12-25T00:53:42.911Z,6.39
2016-12-25T00:54:43.563Z,6.34
2016-12-25T00:55:42.907Z,6.32
2016-12-25T00:56:42.895Z,6.39
2016-12-25T00:57:43.224Z,6.39
2016-12-25T00:58:43.223Z,6.35
2016-12-25T00:59:43.552Z,6.35
2016-12-25T01:00:42.887Z,6.25
2016-12-25T01:01:43.540Z,6.36
2016-12-25T01:02:42.883Z,6.32
2016-12-25T01:03:43.532Z,6.31
2016-12-25T01:04:43.528Z,6.36
2016-12-25T01:05:43.520Z,6.31
2016-12-25T01:06:43.517Z,6.36
2016-12-25T01:07:43.184Z,6.31
2016-12-25T01:08:43.520Z,6.38
2016-12-25T01:09:43.504Z,6.31
2016-12-25T01:10:43.501Z,6.38
2016-12-25T01:11:43.176Z,6.32
2016-12-25T01:12:43.173Z,6.32
2016-12-25T01:13:43.168Z,6.39
2016-12-25T01:14:43.165Z,6.29
2016-12-25T01:15:43.489Z,6.32
2016-12-25T01:16:43.157Z,6.28
2016-12-25T01:17:43.145Z,6.32
2016-12-25T01:18:43.478Z,6.39
2016-12-25T01:19:43.141Z,6.41
2016-12-25T01:20:43.469Z,6.38
2016-12-25T01:21:42.805Z,6.5
2016-12-25T01:22:43.133Z,6.49
2016-12-25T01:23:42.805Z,6.57
2016-12-25T01:24:43.129Z,6.46
2016-12-25T01:25:43.453Z,6.52
2016-12-25T01:26:43.441Z,6.62
2016-12-25T01:27:43.438Z,6.67
2016-12-25T01:28:43.438Z,6.6
2016-12-25T01:29:43.438Z,6.6
2016-12-25T01:30:43.434Z,6.65
2016-12-25T01:31:43.430Z,6.75
2016-12-25T01:32:43.094Z,6.74
2016-12-25T01:33:43.418Z,6.77
2016-12-25T01:34:43.086Z,6.71
2016-12-25T01:35:43.410Z,6.8
2016-12-25T01:36:43.418Z,6.82
2016-12-25T01:37:43.080Z,6.8
2016-12-25T01:38:43.074Z,6.83
2016-12-25T01:39:43.078Z,6.78
2016-12-25T01:40:43.398Z,6.83
2016-12-25T01:41:43.095Z,6.82
2016-12-25T01:42:43.390Z,6.95
2016-12-25T01:43:43.419Z,6.87
2016-12-25T01:44:43.375Z,6.86
2016-12-25T01:45:43.051Z,6.92
2016-12-25T01:46:43.367Z,6.95
2016-12-25T01:47:43.039Z,6.89
2016-12-25T01:48:43.035Z,6.95
2016-12-25T01:49:43.363Z,7
2016-12-25T01:50:43.035Z,6.97
2016-12-25T01:51:43.367Z,6.95
2016-12-25T01:52:43.360Z,7.08
2016-12-25T01:53:43.356Z,7.08
2016-12-25T01:54:43.355Z,7.11
2016-12-25T01:55:43.052Z,7.11
2016-12-25T01:56:43.012Z,7.08
2016-12-25T01:57:43.336Z,7.11
2016-12-25T01:58:43.002Z,7.1
2016-12-25T01:59:43.329Z,7.14
2016-12-25T02:00:43.328Z,7.13
2016-12-25T02:01:43.324Z,7.1
2016-12-25T02:02:43.316Z,7.14
2016-12-25T02:03:42.992Z,7.22
2016-12-25T02:04:42.688Z,7.18
2016-12-25T02:05:43.345Z,7.21
2016-12-25T02:06:42.985Z,7.15
2016-12-25T02:07:43.301Z,7.18
2016-12-25T02:08:43.324Z,7.14
2016-12-25T02:09:43.285Z,7.21
2016-12-25T02:10:43.289Z,7.23
2016-12-25T02:11:42.953Z,7.13
2016-12-25T02:12:42.957Z,7.13
2016-12-25T02:13:42.949Z,7.11
2016-12-25T02:14:43.279Z,7.11
2016-12-25T02:15:42.937Z,7.18
2016-12-25T02:16:42.946Z,7.11
2016-12-25T02:17:43.261Z,7.21
2016-12-25T02:18:42.940Z,7.14
2016-12-25T02:19:43.249Z,7.08
2016-12-25T02:20:42.594Z,7.15
2016-12-25T02:21:43.253Z,7.1
2016-12-25T02:22:43.242Z,7.05
2016-12-25T02:23:42.918Z,7.14
2016-12-25T02:24:43.234Z,7.07
2016-12-25T02:25:43.230Z,7.07
2016-12-25T02:26:43.262Z,7.1
2016-12-25T02:27:42.899Z,7.08
2016-12-25T02:28:42.894Z,7.05
2016-12-25T02:29:42.886Z,7.07
2016-12-25T02:30:42.567Z,7.1
2016-12-25T02:31:43.210Z,6.96
2016-12-25T02:32:43.222Z,7.04
2016-12-25T02:33:43.210Z,6.95
2016-12-25T02:34:42.875Z,6.92
2016-12-25T02:35:42.867Z,6.95
2016-12-25T02:36:42.867Z,6.89
2016-12-25T02:37:43.187Z,6.93
2016-12-25T02:38:42.871Z,6.9
2016-12-25T02:39:43.183Z,6.89
2016-12-25T02:40:43.179Z,6.89
2016-12-25T02:41:42.838Z,6.83
2016-12-25T02:42:42.847Z,6.78
2016-12-25T02:43:42.843Z,6.75
2016-12-25T02:44:42.847Z,6.82
2016-12-25T02:45:42.831Z,6.77
2016-12-25T02:46:42.831Z,6.82
2016-12-25T02:47:43.155Z,6.72
2016-12-25T02:48:42.831Z,6.64
2016-12-25T02:49:42.819Z,6.59
2016-12-25T02:50:42.807Z,6.62
2016-12-25T02:51:43.143Z,6.67
2016-12-25T02:52:42.811Z,6.7
2016-12-25T02:53:42.799Z,6.65
2016-12-25T02:54:42.799Z,6.6
2016-12-25T02:55:43.113Z,6.62
2016-12-25T02:56:43.115Z,6.5
2016-12-25T02:57:42.787Z,6.59
2016-12-25T02:58:43.108Z,6.49
2016-12-25T02:59:43.107Z,6.52
2016-12-25T03:00:42.771Z,6.53
2016-12-25T03:01:42.779Z,6.56
2016-12-25T03:02:42.768Z,6.53
2016-12-25T03:03:43.095Z,6.5
2016-12-25T03:04:42.432Z,6.49
2016-12-25T03:05:43.100Z,6.54
2016-12-25T03:06:42.784Z,6.46
2016-12-25T03:07:42.752Z,6.46
2016-12-25T03:08:43.077Z,6.38
2016-12-25T03:09:43.068Z,6.35
2016-12-25T03:10:43.068Z,6.35
2016-12-25T03:11:42.736Z,6.47
2016-12-25T03:12:42.740Z,6.36
2016-12-25T03:13:43.064Z,6.5
2016-12-25T03:14:42.724Z,6.46
2016-12-25T03:15:43.053Z,6.35
2016-12-25T03:16:42.724Z,6.41
2016-12-25T03:17:42.717Z,6.46
2016-12-25T03:18:42.717Z,6.36
2016-12-25T03:19:42.709Z,6.39
2016-12-25T03:20:42.693Z,6.39
2016-12-25T03:21:42.709Z,6.46
2016-12-25T03:22:43.057Z,6.46
2016-12-25T03:23:43.029Z,6.52
2016-12-25T03:24:42.689Z,6.54
2016-12-25T03:25:42.361Z,6.46
2016-12-25T03:26:43.010Z,6.49
2016-12-25T03:27:42.350Z,6.47
2016-12-25T03:28:43.005Z,6.46
2016-12-25T03:29:42.826Z,6.5
2016-12-25T03:30:42.998Z,6.41
2016-12-25T03:31:42.662Z,6.52
2016-12-25T03:32:42.990Z,6.39
2016-12-25T03:33:42.986Z,6.46
2016-12-25T03:34:42.646Z,6.41
2016-12-25T03:35:42.986Z,6.44
2016-12-25T03:36:42.642Z,6.38
2016-12-25T03:37:42.646Z,6.41
2016-12-25T03:38:42.974Z,6.35
2016-12-25T03:39:42.970Z,6.35
2016-12-25T03:40:42.962Z,6.31
2016-12-25T03:41:42.955Z,6.43
2016-12-25T03:42:42.950Z,6.31
2016-12-25T03:43:42.950Z,6.39
2016-12-25T03:44:42.946Z,6.43
2016-12-25T03:45:42.615Z,6.36
2016-12-25T03:46:42.603Z,6.36
2016-12-25T03:47:42.611Z,6.28
2016-12-25T03:48:42.599Z,6.29
2016-12-25T03:49:42.594Z,6.28
2016-12-25T03:50:42.923Z,6.32
2016-12-25T03:51:42.587Z,6.32
2016-12-25T03:52:42.919Z,6.35
2016-12-25T03:53:42.912Z,6.36
2016-12-25T03:54:42.583Z,6.34
2016-12-25T03:55:42.911Z,6.35
2016-12-25T03:56:42.919Z,6.43
2016-12-25T03:57:42.575Z,6.35
2016-12-25T03:58:42.568Z,6.35
2016-12-25T03:59:42.892Z,6.26
2016-12-25T04:00:42.560Z,6.32
2016-12-25T04:01:42.559Z,6.34
2016-12-25T04:02:42.556Z,6.44
2016-12-25T04:03:42.548Z,6.32
2016-12-25T04:04:42.569Z,6.32
2016-12-25T04:05:42.547Z,6.35
2016-12-25T04:06:42.535Z,6.31
2016-12-25T04:07:42.532Z,6.39
2016-12-25T04:08:42.204Z,6.35
2016-12-25T04:09:42.999Z,6.35
2016-12-25T04:10:42.197Z,6.35
2016-12-25T04:11:42.515Z,6.32
2016-12-25T04:12:42.188Z,6.31
2016-12-25T04:13:42.511Z,6.25
2016-12-25T04:14:42.835Z,6.29
2016-12-25T04:15:42.835Z,6.28
2016-12-25T04:16:42.827Z,6.15
2016-12-25T04:17:42.495Z,6.22
2016-12-25T04:18:42.815Z,6.25
2016-12-25T04:19:42.815Z,6.13
2016-12-25T04:20:42.483Z,6.2
2016-12-25T04:21:42.807Z,6.29
2016-12-25T04:22:42.799Z,6.17
2016-12-25T04:23:42.471Z,6.22
2016-12-25T04:24:42.795Z,6.16
2016-12-25T04:25:42.787Z,6.26
2016-12-25T04:26:42.795Z,6.25
2016-12-25T04:27:42.792Z,6.31
2016-12-25T04:28:42.783Z,6.32
2016-12-25T04:29:42.455Z,6.26
2016-12-25T04:30:42.772Z,6.25
2016-12-25T04:31:42.444Z,6.28
2016-12-25T04:32:42.772Z,6.26
2016-12-25T04:33:42.760Z,6.34
2016-12-25T04:34:42.760Z,6.32
2016-12-25T04:35:42.424Z,6.34
2016-12-25T04:36:42.756Z,6.28
2016-12-25T04:37:42.744Z,6.28
2016-12-25T04:38:42.744Z,6.22
2016-12-25T04:39:42.416Z,6.26
2016-12-25T04:40:42.728Z,6.31
2016-12-25T04:41:42.408Z,6.31
2016-12-25T04:42:42.400Z,6.28
2016-12-25T04:43:42.725Z,6.26
2016-12-25T04:44:42.392Z,6.22
2016-12-25T04:45:42.713Z,6.25
2016-12-25T04:46:42.389Z,6.28
2016-12-25T04:47:42.705Z,6.28
2016-12-25T04:48:42.381Z,6.29
2016-12-25T04:49:42.712Z,6.29
2016-12-25T04:50:42.693Z,6.25
2016-12-25T04:51:42.372Z,6.31
2016-12-25T04:52:42.353Z,6.35
2016-12-25T04:53:42.045Z,6.29
2016-12-25T04:54:42.681Z,6.25
2016-12-25T04:55:42.685Z,6.28
2016-12-25T04:56:42.677Z,6.32
2016-12-25T04:57:42.349Z,6.22
2016-12-25T04:58:42.666Z,6.35
2016-12-25T04:59:42.666Z,6.35
2016-12-25T05:00:42.673Z,6.31
2016-12-25T05:01:42.334Z,6.32
2016-12-25T05:02:42.658Z,6.34
2016-12-25T05:03:42.654Z,6.43
2016-12-25T05:04:42.653Z,6.35
2016-12-25T05:05:42.647Z,6.31
2016-12-25T05:06:42.638Z,6.34
2016-12-25T05:07:42.638Z,6.36
2016-12-25T05:08:42.302Z,6.39
2016-12-25T05:09:42.635Z,6.43
2016-12-25T05:10:41.970Z,6.39
2016-12-25T05:11:42.622Z,6.34
2016-12-25T05:12:42.618Z,6.46
2016-12-25T05:13:42.290Z,6.49
2016-12-25T05:14:42.606Z,6.39
2016-12-25T05:15:42.611Z,6.47
2016-12-25T05:16:42.271Z,6.39
2016-12-25T05:17:42.271Z,6.36
2016-12-25T05:18:42.267Z,6.43
2016-12-25T05:19:42.266Z,6.46
2016-12-25T05:20:41.935Z,6.5
2016-12-25T05:21:42.591Z,6.41
2016-12-25T05:22:42.263Z,6.54
2016-12-25T05:23:41.956Z,6.49
2016-12-25T05:24:42.247Z,6.49
2016-12-25T05:25:42.571Z,6.49
2016-12-25T05:26:42.567Z,6.46
2016-12-25T05:27:42.560Z,6.49
2016-12-25T05:28:42.559Z,6.52
2016-12-25T05:29:42.228Z,6.54
2016-12-25T05:30:42.555Z,6.49
2016-12-25T05:31:42.220Z,6.56
2016-12-25T05:32:42.216Z,6.49
2016-12-25T05:33:41.880Z,6.49
2016-12-25T05:34:42.208Z,6.52
2016-12-25T05:35:42.204Z,6.49
2016-12-25T05:36:42.536Z,6.47
2016-12-25T05:37:41.876Z,6.47
2016-12-25T05:38:42.522Z,6.49
2016-12-25T05:39:42.188Z,6.57
2016-12-25T05:40:42.512Z,6.57
2016-12-25T05:41:42.188Z,6.59
2016-12-25T05:42:42.512Z,6.62
2016-12-25T05:43:42.500Z,6.59
2016-12-25T05:44:42.512Z,6.57
2016-12-25T05:45:42.500Z,6.59
2016-12-25T05:46:41.828Z,6.59
2016-12-25T05:47:42.489Z,6.59
2016-12-25T05:48:42.155Z,6.67
2016-12-25T05:49:42.144Z,6.57
2016-12-25T05:50:42.152Z,6.64
2016-12-25T05:51:42.149Z,6.65
2016-12-25T05:52:42.469Z,6.67
2016-12-25T05:53:42.141Z,6.64
2016-12-25T05:54:42.144Z,6.6
2016-12-25T05:55:42.453Z,6.54
2016-12-25T05:56:42.453Z,6.62
2016-12-25T05:57:42.441Z,6.59
2016-12-25T05:58:42.453Z,6.56
2016-12-25T05:59:42.113Z,6.64
2016-12-25T06:00:42.114Z,6.56
2016-12-25T06:01:42.105Z,6.54
2016-12-25T06:02:42.433Z,6.59
2016-12-25T06:03:42.097Z,6.6
2016-12-25T06:04:42.425Z,6.62
2016-12-25T06:05:42.418Z,6.59
2016-12-25T06:06:42.090Z,6.6
2016-12-25T06:07:42.446Z,6.7
2016-12-25T06:08:42.077Z,6.6
2016-12-25T06:09:42.082Z,6.64
2016-12-25T06:10:42.066Z,6.68
2016-12-25T06:11:42.393Z,6.59
2016-12-25T06:12:42.387Z,6.67
2016-12-25T06:13:42.398Z,6.62
2016-12-25T06:14:42.397Z,6.67
2016-12-25T06:15:42.386Z,6.67
2016-12-25T06:16:42.377Z,6.65
2016-12-25T06:17:42.042Z,6.59
2016-12-25T06:18:42.370Z,6.67
2016-12-25T06:19:42.070Z,6.64
2016-12-25T06:20:42.038Z,6.64
2016-12-25T06:21:42.038Z,6.64
2016-12-25T06:22:42.362Z,6.65
2016-12-25T06:23:42.030Z,6.67
2016-12-25T06:24:42.354Z,6.64
2016-12-25T06:25:42.018Z,6.7
2016-12-25T06:26:42.339Z,6.68
2016-12-25T06:27:42.338Z,6.65
2016-12-25T06:28:42.003Z,6.67
2016-12-25T06:29:42.003Z,6.59
2016-12-25T06:30:41.671Z,6.67
2016-12-25T06:31:42.331Z,6.67
2016-12-25T06:32:41.990Z,6.62
2016-12-25T06:33:42.311Z,6.64
2016-12-25T06:34:42.307Z,6.68
2016-12-25T06:35:41.979Z,6.65
2016-12-25T06:36:42.307Z,6.71
2016-12-25T06:37:41.647Z,6.6
2016-12-25T06:38:41.971Z,6.74
2016-12-25T06:39:41.963Z,6.75
2016-12-25T06:40:42.291Z,6.71
2016-12-25T06:41:41.959Z,6.71
2016-12-25T06:42:42.283Z,6.72
2016-12-25T06:43:42.275Z,6.65
2016-12-25T06:44:41.948Z,6.7
2016-12-25T06:45:42.267Z,6.7
2016-12-25T06:46:41.935Z,6.71
2016-12-25T06:47:41.943Z,6.64
2016-12-25T06:48:41.603Z,6.68
2016-12-25T06:49:42.259Z,6.7
2016-12-25T06:50:42.247Z,6.7
2016-12-25T06:51:42.247Z,6.71
2016-12-25T06:52:42.243Z,6.68
2016-12-25T06:53:41.908Z,6.7
2016-12-25T06:54:42.223Z,6.65
2016-12-25T06:55:42.235Z,6.65
2016-12-25T06:56:42.231Z,6.6
2016-12-25T06:57:42.219Z,6.59
2016-12-25T06:58:42.223Z,6.65
2016-12-25T06:59:41.895Z,6.67
2016-12-25T07:00:41.883Z,6.67
2016-12-25T07:01:42.207Z,6.65
2016-12-25T07:02:41.548Z,6.62
2016-12-25T07:03:42.199Z,6.64
2016-12-25T07:04:42.199Z,6.64
2016-12-25T07:05:42.192Z,6.68
2016-12-25T07:06:41.871Z,6.64
2016-12-25T07:07:41.856Z,6.71
2016-12-25T07:08:41.855Z,6.62
2016-12-25T07:09:42.176Z,6.7
2016-12-25T07:10:42.168Z,6.64
2016-12-25T07:11:41.516Z,6.62
2016-12-25T07:12:42.168Z,6.68
2016-12-25T07:13:41.835Z,6.65
2016-12-25T07:14:41.827Z,6.67
2016-12-25T07:15:42.156Z,6.67
2016-12-25T07:16:41.819Z,6.6
2016-12-25T07:17:42.152Z,6.68
2016-12-25T07:18:41.488Z,6.64
2016-12-25T07:19:41.816Z,6.6
2016-12-25T07:20:41.808Z,6.68
2016-12-25T07:21:41.804Z,6.71
2016-12-25T07:22:41.476Z,6.64
2016-12-25T07:23:41.796Z,6.62
2016-12-25T07:24:42.124Z,6.62
2016-12-25T07:25:42.116Z,6.62
2016-12-25T07:26:41.788Z,6.7
2016-12-25T07:27:41.456Z,6.74
2016-12-25T07:28:42.112Z,6.72
2016-12-25T07:29:41.777Z,6.72
2016-12-25T07:30:42.104Z,6.7
2016-12-25T07:31:41.760Z,6.72
2016-12-25T07:32:41.760Z,6.82
2016-12-25T07:33:41.760Z,6.77
2016-12-25T07:34:42.076Z,6.77
2016-12-25T07:35:41.748Z,6.75
2016-12-25T07:36:41.744Z,6.82
2016-12-25T07:37:42.064Z,6.8
2016-12-25T07:38:41.416Z,6.82
2016-12-25T07:39:41.736Z,6.74
2016-12-25T07:40:42.056Z,6.75
2016-12-25T07:41:41.725Z,6.78
2016-12-25T07:42:41.724Z,6.75
2016-12-25T07:43:41.717Z,6.85
2016-12-25T07:44:42.056Z,6.86
2016-12-25T07:45:41.632Z,6.78
2016-12-25T07:46:42.040Z,6.75
2016-12-25T07:47:41.712Z,6.75
2016-12-25T07:48:41.705Z,6.78
2016-12-25T07:49:41.733Z,6.8
2016-12-25T07:50:41.697Z,6.72
2016-12-25T07:51:42.020Z,6.78
2016-12-25T07:52:41.689Z,6.82
2016-12-25T07:53:42.012Z,6.77
2016-12-25T07:54:41.676Z,6.87
2016-12-25T07:55:42.009Z,6.83
2016-12-25T07:56:41.676Z,6.82
2016-12-25T07:57:41.992Z,6.77
2016-12-25T07:58:41.692Z,6.85
2016-12-25T07:59:41.989Z,6.85
2016-12-25T08:00:41.648Z,6.85
2016-12-25T08:01:41.653Z,6.86
2016-12-25T08:02:41.650Z,6.87
2016-12-25T08:03:41.640Z,6.9
2016-12-25T08:04:41.642Z,6.95
2016-12-25T08:05:41.969Z,6.87
2016-12-25T08:06:41.972Z,6.87
2016-12-25T08:07:41.968Z,6.93
2016-12-25T08:08:41.952Z,6.92
2016-12-25T08:09:41.300Z,6.87
2016-12-25T08:10:41.949Z,6.96
2016-12-25T08:11:41.617Z,6.92
2016-12-25T08:12:41.944Z,6.93
2016-12-25T08:13:41.940Z,6.92
2016-12-25T08:14:41.933Z,6.96
2016-12-25T08:15:41.597Z,6.92
2016-12-25T08:16:41.268Z,6.95
2016-12-25T08:17:41.924Z,6.92
2016-12-25T08:18:41.256Z,6.92
2016-12-25T08:19:41.914Z,6.96
2016-12-25T08:20:41.580Z,6.92
2016-12-25T08:21:41.896Z,6.97
2016-12-25T08:22:41.573Z,6.86
2016-12-25T08:23:41.896Z,6.9
2016-12-25T08:24:41.568Z,6.92
2016-12-25T08:25:41.616Z,6.92
2016-12-25T08:26:41.592Z,6.95
2016-12-25T08:27:41.556Z,6.93
2016-12-25T08:28:41.551Z,6.96
2016-12-25T08:29:41.877Z,6.95
2016-12-25T08:30:41.539Z,6.97
2016-12-25T08:31:41.872Z,6.96
2016-12-25T08:32:41.855Z,7
2016-12-25T08:33:41.863Z,6.93
2016-12-25T08:34:41.531Z,6.97
2016-12-25T08:35:41.523Z,7.03
2016-12-25T08:36:41.519Z,7.07
2016-12-25T08:37:41.519Z,7.07
2016-12-25T08:38:41.833Z,7.1
2016-12-25T08:39:41.507Z,7.07
2016-12-25T08:40:41.835Z,7.11
2016-12-25T08:41:41.502Z,7.14
2016-12-25T08:42:41.179Z,7.15
2016-12-25T08:43:41.519Z,7.18
2016-12-25T08:44:41.819Z,7.19
2016-12-25T08:45:41.818Z,7.15
2016-12-25T08:46:41.811Z,7.19
2016-12-25T08:47:41.799Z,7.15
2016-12-25T08:48:41.795Z,7.15
2016-12-25T08:49:41.479Z,7.19
2016-12-25T08:50:41.795Z,7.29
2016-12-25T08:51:41.131Z,7.25
2016-12-25T08:52:41.790Z,7.19
2016-12-25T08:53:41.783Z,7.19
2016-12-25T08:54:41.771Z,7.29
2016-12-25T08:55:41.771Z,7.25
2016-12-25T08:56:41.118Z,7.19
2016-12-25T08:57:41.759Z,7.25
2016-12-25T08:58:41.763Z,7.22
2016-12-25T08:59:41.435Z,7.33
2016-12-25T09:00:41.423Z,7.23
2016-12-25T09:01:41.759Z,7.31
2016-12-25T09:02:41.431Z,7.36
2016-12-25T09:03:41.747Z,7.43
2016-12-25T09:04:41.419Z,7.39
2016-12-25T09:05:41.407Z,7.47
2016-12-25T09:06:41.735Z,7.44
2016-12-25T09:07:41.735Z,7.4
2016-12-25T09:08:41.403Z,7.37
2016-12-25T09:09:41.724Z,7.46
2016-12-25T09:10:41.388Z,7.48
2016-12-25T09:11:41.711Z,7.48
2016-12-25T09:12:41.716Z,7.5
2016-12-25T09:13:41.712Z,7.48
2016-12-25T09:14:41.707Z,7.48
2016-12-25T09:15:41.371Z,7.48
2016-12-25T09:16:41.692Z,7.53
2016-12-25T09:17:41.696Z,7.55
2016-12-25T09:18:41.696Z,7.5
2016-12-25T09:19:41.688Z,7.56
2016-12-25T09:20:41.351Z,7.56
2016-12-25T09:21:41.684Z,7.56
2016-12-25T09:22:41.028Z,7.66
2016-12-25T09:23:41.668Z,7.67
2016-12-25T09:24:41.372Z,7.75
2016-12-25T09:25:41.664Z,7.75
2016-12-25T09:26:41.653Z,7.77
2016-12-25T09:27:41.328Z,7.85
2016-12-25T09:28:41.329Z,7.77
2016-12-25T09:29:41.653Z,7.81
2016-12-25T09:30:41.801Z,7.9
2016-12-25T09:31:41.645Z,7.84
2016-12-25T09:32:41.345Z,7.95
2016-12-25T09:33:41.638Z,8.01
2016-12-25T09:34:41.781Z,7.98
2016-12-25T09:35:41.776Z,7.98
2016-12-25T09:36:41.633Z,8.01
2016-12-25T09:37:41.293Z,8.03
2016-12-25T09:38:41.297Z,8.05
2016-12-25T09:39:41.290Z,8.05
2016-12-25T09:40:41.285Z,8.13
2016-12-25T09:41:41.602Z,8.11
2016-12-25T09:42:41.605Z,8.2
2016-12-25T09:43:40.950Z,8.24
2016-12-25T09:44:41.266Z,8.32
2016-12-25T09:45:41.270Z,8.31
2016-12-25T09:46:41.266Z,8.28
2016-12-25T09:47:41.582Z,8.41
2016-12-25T09:48:41.254Z,8.41
2016-12-25T09:49:41.578Z,8.34
2016-12-25T09:50:41.247Z,8.39
2016-12-25T09:51:41.246Z,8.46
2016-12-25T09:52:41.571Z,8.52
2016-12-25T09:53:41.242Z,8.39
2016-12-25T09:54:41.239Z,8.38
2016-12-25T09:55:41.563Z,8.44
2016-12-25T09:56:41.555Z,8.53
2016-12-25T09:57:41.226Z,8.49
2016-12-25T09:58:41.555Z,8.59
2016-12-25T09:59:41.560Z,8.57
2016-12-25T10:00:41.542Z,8.64
2016-12-25T10:01:40.883Z,8.68
2016-12-25T10:02:41.199Z,8.61
2016-12-25T10:03:41.539Z,8.66
2016-12-25T10:04:41.208Z,8.68
2016-12-25T10:05:41.211Z,8.66
2016-12-25T10:06:41.195Z,8.68
2016-12-25T10:07:40.867Z,8.71
2016-12-25T10:08:41.515Z,8.71
2016-12-25T10:09:41.514Z,8.71
2016-12-25T10:10:41.507Z,8.75
2016-12-25T10:11:41.503Z,8.71
2016-12-25T10:12:40.846Z,8.68
2016-12-25T10:13:40.846Z,8.69
2016-12-25T10:14:41.175Z,8.72
2016-12-25T10:15:41.163Z,8.68
2016-12-25T10:16:41.163Z,8.74
2016-12-25T10:17:41.487Z,8.69
2016-12-25T10:18:40.827Z,8.71
2016-12-25T10:19:40.819Z,8.71
2016-12-25T10:20:41.151Z,8.68
2016-12-25T10:21:41.467Z,8.64
2016-12-25T10:22:41.135Z,8.68
2016-12-25T10:23:41.140Z,8.64
2016-12-25T10:24:41.463Z,8.68
2016-12-25T10:25:41.459Z,8.72
2016-12-25T10:26:41.456Z,8.78
2016-12-25T10:27:41.123Z,8.9
2016-12-25T10:28:41.119Z,8.87
2016-12-25T10:29:41.443Z,9
2016-12-25T10:30:41.115Z,9.03
2016-12-25T10:31:41.435Z,8.99
2016-12-25T10:32:41.428Z,8.97
2016-12-25T10:33:41.099Z,9.12
2016-12-25T10:34:40.771Z,9.19
2016-12-25T10:35:41.091Z,9.24
2016-12-25T10:36:41.095Z,9.29
2016-12-25T10:37:41.092Z,9.31
2016-12-25T10:38:41.084Z,9.34
2016-12-25T10:39:41.084Z,9.36
2016-12-25T10:40:41.076Z,9.44
2016-12-25T10:41:41.072Z,9.54
2016-12-25T10:42:41.400Z,9.59
2016-12-25T10:43:41.400Z,9.7
2016-12-25T10:44:41.072Z,9.7
2016-12-25T10:45:41.392Z,9.84
2016-12-25T10:46:41.388Z,9.95
2016-12-25T10:47:41.060Z,10.06
2016-12-25T10:48:41.380Z,10.21
2016-12-25T10:49:41.056Z,10.31
2016-12-25T10:50:41.381Z,10.45
2016-12-25T10:51:41.372Z,10.51
2016-12-25T10:52:41.369Z,10.59
2016-12-25T10:53:41.365Z,10.51
2016-12-25T10:54:41.369Z,10.53
2016-12-25T10:55:41.361Z,10.57
2016-12-25T10:56:41.033Z,10.45
2016-12-25T10:57:41.361Z,10.41
2016-12-25T10:58:41.349Z,10.33
2016-12-25T10:59:41.349Z,10.39
2016-12-25T11:00:41.353Z,10.3
2016-12-25T11:01:41.013Z,10.33
2016-12-25T11:02:41.346Z,10.38
2016-12-25T11:03:41.014Z,10.41
2016-12-25T11:04:41.334Z,10.57
2016-12-25T11:05:41.006Z,10.53
2016-12-25T11:06:41.330Z,10.58
2016-12-25T11:07:41.318Z,10.53
2016-12-25T11:08:40.670Z,10.57
2016-12-25T11:09:40.994Z,10.67
2016-12-25T11:10:41.318Z,10.55
2016-12-25T11:11:40.998Z,10.61
2016-12-25T11:12:40.983Z,10.55
2016-12-25T11:13:40.975Z,10.58
2016-12-25T11:14:41.307Z,10.51
2016-12-25T11:15:40.653Z,10.59
2016-12-25T11:16:40.974Z,10.67
2016-12-25T11:17:40.975Z,10.69
2016-12-25T11:18:40.967Z,10.68
2016-12-25T11:19:41.297Z,10.69
2016-12-25T11:20:40.975Z,10.72
2016-12-25T11:21:40.631Z,10.75
2016-12-25T11:22:40.955Z,10.71
2016-12-25T11:23:40.956Z,10.77
2016-12-25T11:24:40.956Z,10.79
2016-12-25T11:25:41.276Z,10.79
2016-12-25T11:26:40.948Z,10.87
2016-12-25T11:27:41.276Z,10.84
2016-12-25T11:28:40.972Z,10.84
2016-12-25T11:29:40.932Z,10.77
2016-12-25T11:30:41.264Z,10.77
2016-12-25T11:31:40.928Z,10.77
2016-12-25T11:32:41.248Z,10.69
2016-12-25T11:33:40.928Z,10.69
2016-12-25T11:34:40.928Z,10.68
2016-12-25T11:35:40.928Z,10.65
2016-12-25T11:36:40.925Z,10.64
2016-12-25T11:37:40.909Z,10.65
2016-12-25T11:38:41.237Z,10.68
2016-12-25T11:39:41.237Z,10.61
2016-12-25T11:40:41.237Z,10.48
2016-12-25T11:41:40.897Z,10.53
2016-12-25T11:42:40.893Z,10.65
2016-12-25T11:43:41.237Z,10.59
2016-12-25T11:44:41.225Z,10.59
2016-12-25T11:45:41.217Z,10.55
2016-12-25T11:46:41.213Z,10.57
2016-12-25T11:47:40.889Z,10.68
2016-12-25T11:48:40.555Z,10.64
2016-12-25T11:49:41.213Z,10.62
2016-12-25T11:50:40.885Z,10.68
2016-12-25T11:51:41.209Z,10.68
2016-12-25T11:52:41.206Z,10.77
2016-12-25T11:53:41.197Z,10.77
2016-12-25T11:54:40.870Z,10.72
2016-12-25T11:55:40.862Z,10.86
2016-12-25T11:56:40.862Z,10.79
2016-12-25T11:57:40.866Z,10.79
2016-12-25T11:58:40.850Z,10.89
2016-12-25T11:59:41.178Z,10.97
2016-12-25T12:00:41.182Z,11.01
2016-12-25T12:01:41.174Z,11
2016-12-25T12:02:40.846Z,11.07
2016-12-25T12:03:40.846Z,11.05
2016-12-25T12:04:41.174Z,11.07
2016-12-25T12:05:40.510Z,11.08
2016-12-25T12:06:41.162Z,11.02
2016-12-25T12:07:40.838Z,10.98
2016-12-25T12:08:41.166Z,10.92
2016-12-25T12:09:40.835Z,10.89
2016-12-25T12:10:40.827Z,10.87
2016-12-25T12:11:41.151Z,10.87
2016-12-25T12:12:40.823Z,10.83
2016-12-25T12:13:41.151Z,10.83
2016-12-25T12:14:41.139Z,10.86
2016-12-25T12:15:41.139Z,10.83
2016-12-25T12:16:40.815Z,10.87
2016-12-25T12:17:40.807Z,10.9
2016-12-25T12:18:40.807Z,10.95
2016-12-25T12:19:41.131Z,11.01
2016-12-25T12:20:40.799Z,11
2016-12-25T12:21:40.803Z,10.94
2016-12-25T12:22:41.127Z,11
2016-12-25T12:23:41.115Z,10.9
2016-12-25T12:24:40.795Z,10.95
2016-12-25T12:25:41.111Z,11.01
2016-12-25T12:26:41.115Z,10.95
2016-12-25T12:27:40.779Z,11.07
2016-12-25T12:28:40.455Z,11.04
2016-12-25T12:29:40.779Z,11.05
2016-12-25T12:30:40.780Z,11.08
2016-12-25T12:31:41.001Z,10.97
2016-12-25T12:32:40.772Z,10.79
2016-12-25T12:33:41.096Z,10.79
2016-12-25T12:34:41.088Z,10.79
2016-12-25T12:35:41.096Z,10.79
2016-12-25T12:36:41.097Z,10.75
2016-12-25T12:37:41.088Z,10.65
2016-12-25T12:38:41.099Z,10.71
2016-12-25T12:39:40.819Z,10.62
2016-12-25T12:40:40.747Z,10.64
2016-12-25T12:41:41.075Z,10.68
2016-12-25T12:42:40.739Z,10.64
2016-12-25T12:43:40.743Z,10.65
2016-12-25T12:44:40.742Z,10.67
2016-12-25T12:45:41.066Z,10.65
2016-12-25T12:46:41.062Z,10.72
2016-12-25T12:47:40.730Z,10.8
2016-12-25T12:48:41.058Z,10.77
2016-12-25T12:49:40.718Z,10.8
2016-12-25T12:50:40.394Z,10.84
2016-12-25T12:51:41.046Z,10.89
2016-12-25T12:52:40.742Z,10.84
2016-12-25T12:53:40.710Z,10.87
2016-12-25T12:54:40.714Z,10.82
2016-12-25T12:55:40.698Z,10.9
2016-12-25T12:56:40.706Z,10.98
2016-12-25T12:57:41.038Z,11
2016-12-25T12:58:40.377Z,10.9
2016-12-25T12:59:41.025Z,10.87
2016-12-25T13:00:41.021Z,10.95
2016-12-25T13:01:40.691Z,11
2016-12-25T13:02:41.021Z,10.95
2016-12-25T13:03:40.693Z,10.97
2016-12-25T13:04:41.017Z,11.04
2016-12-25T13:05:41.013Z,11.04
2016-12-25T13:06:40.349Z,11.1
2016-12-25T13:07:41.008Z,11.08
2016-12-25T13:08:40.993Z,11.04
2016-12-25T13:09:40.996Z,11.07
2016-12-25T13:10:40.993Z,11.02
2016-12-25T13:11:40.665Z,10.98
2016-12-25T13:12:40.988Z,10.98
2016-12-25T13:13:40.985Z,10.95
2016-12-25T13:14:40.660Z,10.94
2016-12-25T13:15:40.980Z,10.77
2016-12-25T13:16:41.132Z,10.87